Time;durP1;ratioP1;P1;durP2;ratioP2;P2;SDS_P1;SDS_P2;PMS_P1;PMS_P2;Temp;Humidity;BMP_temperature;BMP_pressure;BME280_temperature;BME280_humidity;BME280_pressure;Samples;Min_cycle;Max_cycle;Signal;HPM_P1;HPM_P2
2022/11/02 00:00:38;;;;;;;11.02;6.25;;;10.20;99.90;;;;;;5031425;28;20112;-75
2022/11/02 00:03:04;;;;;;;9.02;6.50;;;10.20;99.90;;;;;;5032541;28;20072;-75
2022/11/02 00:05:30;;;;;;;10.23;6.43;;;10.10;99.90;;;;;;5032688;28;20053;-75
2022/11/02 00:07:55;;;;;;;10.07;6.40;;;10.00;99.90;;;;;;5034000;28;20053;-75
2022/11/02 00:10:22;;;;;;;11.48;6.60;;;9.80;99.90;;;;;;5016643;28;20084;-75
2022/11/02 00:12:48;;;;;;;11.02;7.05;;;9.80;99.90;;;;;;5026970;28;20033;-76
2022/11/02 00:15:14;;;;;;;11.10;6.60;;;9.70;99.90;;;;;;5041542;28;20021;-75
2022/11/02 00:17:52;;;;;;;8.80;6.22;;;9.70;99.90;;;;;;5030865;28;20116;-75
2022/11/02 00:20:19;;;;;;;9.30;6.10;;;9.80;99.90;;;;;;5032414;28;20388;-75
2022/11/02 00:22:47;;;;;;;10.25;6.72;;;9.90;99.90;;;;;;5032294;28;20414;-75
2022/11/02 00:25:15;;;;;;;9.60;6.03;;;9.90;99.90;;;;;;5032351;28;20432;-76
2022/11/02 00:27:41;;;;;;;11.25;5.90;;;9.90;99.90;;;;;;5017626;28;20022;-76
2022/11/02 00:30:08;;;;;;;11.27;5.88;;;10.00;99.90;;;;;;5022762;28;20037;-76
2022/11/02 00:32:33;;;;;;;11.18;6.25;;;10.00;99.90;;;;;;5032032;28;20491;-76
2022/11/02 00:34:59;;;;;;;9.05;5.90;;;10.00;99.90;;;;;;5022664;28;20040;-76
2022/11/02 00:37:25;;;;;;;9.88;6.45;;;10.00;99.90;;;;;;5031889;28;20517;-76
2022/11/02 00:39:50;;;;;;;10.75;6.20;;;10.10;99.90;;;;;;5022847;28;20029;-75
2022/11/02 00:42:16;;;;;;;9.77;5.85;;;10.10;99.90;;;;;;5031978;28;20639;-76
2022/11/02 00:44:41;;;;;;;9.25;5.70;;;10.10;99.90;;;;;;5021637;28;20116;-76
2022/11/02 00:47:07;;;;;;;8.63;5.97;;;10.10;99.90;;;;;;5035867;28;20537;-76
2022/11/02 00:49:32;;;;;;;8.73;5.57;;;10.00;99.90;;;;;;5041075;28;20502;-75
2022/11/02 00:51:58;;;;;;;10.77;6.05;;;10.00;99.90;;;;;;5030566;28;20059;-75
2022/11/02 00:54:24;;;;;;;9.25;5.95;;;9.90;99.90;;;;;;5031742;28;20036;-75
2022/11/02 00:56:49;;;;;;;10.20;6.22;;;9.80;99.90;;;;;;5031542;28;20044;-76
2022/11/02 00:59:15;;;;;;;7.75;5.80;;;9.60;99.90;;;;;;5031724;28;20041;-76
2022/11/02 01:01:46;;;;;;;7.40;5.22;;;9.50;99.90;;;;;;5031549;28;20068;-75
2022/11/02 01:04:16;;;;;;;8.80;5.40;;;9.60;99.90;;;;;;5031197;28;20375;-76
2022/11/02 01:06:43;;;;;;;11.20;6.05;;;9.60;99.90;;;;;;5031635;28;20025;-76
2022/11/02 01:09:09;;;;;;;12.60;6.65;;;9.50;99.90;;;;;;5031554;28;20026;-76
2022/11/02 01:11:35;;;;;;;10.70;6.07;;;9.50;99.90;;;;;;5031657;28;20021;-76
2022/11/02 01:14:00;;;;;;;8.27;5.90;;;9.50;99.90;;;;;;5031260;28;20037;-76
2022/11/02 01:16:26;;;;;;;12.68;5.72;;;9.30;99.90;;;;;;5031579;28;20033;-75
2022/11/02 01:18:53;;;;;;;7.18;5.30;;;9.40;99.90;;;;;;5023045;28;20032;-76
2022/11/02 01:21:19;;;;;;;12.52;5.38;;;9.40;99.90;;;;;;5017147;28;20068;-75
2022/11/02 01:23:45;;;;;;;12.82;6.68;;;9.20;99.90;;;;;;5031385;28;20467;-75
2022/11/02 01:26:11;;;;;;;9.43;5.38;;;9.10;99.90;;;;;;5031528;28;20022;-76
2022/11/02 01:28:38;;;;;;;10.43;5.55;;;9.20;99.90;;;;;;5020785;28;20116;-75
2022/11/02 01:31:05;;;;;;;7.85;5.07;;;9.20;99.90;;;;;;5044771;28;20105;-75
2022/11/02 01:33:32;;;;;;;12.13;6.20;;;9.20;99.90;;;;;;5031424;28;20028;-75
2022/11/02 01:35:57;;;;;;;12.23;6.72;;;8.90;99.90;;;;;;5016951;28;20056;-75
2022/11/02 01:38:24;;;;;;;13.52;6.43;;;8.80;99.90;;;;;;5031124;28;20434;-75
2022/11/02 01:40:50;;;;;;;12.40;6.00;;;8.90;99.90;;;;;;5026871;28;20108;-76
2022/11/02 01:43:24;;;;;;;10.85;5.68;;;9.00;99.90;;;;;;5031356;28;20452;-75
2022/11/02 01:45:59;;;;;;;10.90;5.63;;;9.10;99.90;;;;;;5018878;28;20528;-76
2022/11/02 01:48:35;;;;;;;9.38;5.13;;;9.20;99.90;;;;;;5039286;28;20045;-75
2022/11/02 01:51:05;;;;;;;10.65;5.53;;;9.30;99.90;;;;;;5031326;28;20438;-76
2022/11/02 01:53:33;;;;;;;13.50;5.05;;;9.30;99.90;;;;;;5031107;28;20030;-76
2022/11/02 01:55:59;;;;;;;10.13;4.90;;;9.30;99.90;;;;;;5029880;28;20048;-76
2022/11/02 01:58:25;;;;;;;10.68;4.90;;;9.30;99.90;;;;;;5030905;28;20108;-75
2022/11/02 02:00:51;;;;;;;10.70;5.43;;;9.30;99.90;;;;;;5031144;28;20101;-76
2022/11/02 02:03:20;;;;;;;9.55;5.03;;;9.30;99.90;;;;;;5031054;28;20045;-75
2022/11/02 02:06:05;;;;;;;12.30;5.10;;;9.30;99.90;;;;;;5021597;28;20113;-75
2022/11/02 02:08:31;;;;;;;12.15;5.97;;;9.20;99.90;;;;;;5018825;28;20017;-75
2022/11/02 02:10:58;;;;;;;9.52;5.57;;;8.90;99.90;;;;;;5031021;28;20021;-76
2022/11/02 02:13:25;;;;;;;11.73;5.80;;;8.80;99.90;;;;;;5020492;28;20025;-76
2022/11/02 02:15:53;;;;;;;11.85;5.93;;;8.90;99.90;;;;;;5040480;28;20024;-75
2022/11/02 02:18:47;;;;;;;10.98;6.00;;;8.90;99.90;;;;;;5011762;28;20049;-75
2022/11/02 02:21:28;;;;;;;10.18;6.18;;;8.80;99.90;;;;;;5029682;28;20040;-75
2022/11/02 02:24:15;;;;;;;9.63;5.85;;;8.90;99.90;;;;;;5033299;28;20021;-75
2022/11/02 02:26:54;;;;;;;11.68;6.32;;;8.90;99.90;;;;;;5044749;28;20482;-75
2022/11/02 02:29:31;;;;;;;11.27;5.97;;;8.90;99.90;;;;;;5047928;28;20026;-75
2022/11/02 02:32:12;;;;;;;11.85;5.40;;;8.70;99.90;;;;;;5023493;28;20060;-75
2022/11/02 02:34:55;;;;;;;8.18;5.25;;;8.90;99.90;;;;;;5013716;28;20033;-75
2022/11/02 02:37:41;;;;;;;13.05;5.22;;;9.00;99.90;;;;;;5036421;28;20037;-75
2022/11/02 02:40:16;;;;;;;12.73;4.90;;;9.20;99.90;;;;;;5047406;28;20021;-75
2022/11/02 02:43:00;;;;;;;9.57;4.95;;;9.30;99.90;;;;;;5042391;28;20096;-76
2022/11/02 02:45:37;;;;;;;7.90;4.38;;;9.30;99.90;;;;;;5036519;28;20028;-76
2022/11/02 02:48:23;;;;;;;10.40;4.53;;;9.30;99.90;;;;;;5025275;28;20387;-75
2022/11/02 02:50:52;;;;;;;12.68;4.40;;;9.30;99.90;;;;;;5027067;28;20148;-76
2022/11/02 02:53:29;;;;;;;10.00;4.93;;;9.40;99.90;;;;;;5035981;28;20040;-75
2022/11/02 02:55:58;;;;;;;10.95;4.07;;;9.30;99.90;;;;;;5043405;28;20025;-76
2022/11/02 02:58:27;;;;;;;6.65;3.95;;;9.30;99.90;;;;;;5038056;28;20017;-76
2022/11/02 03:00:55;;;;;;;8.18;3.85;;;9.30;99.90;;;;;;5042366;28;20025;-76
2022/11/02 03:03:27;;;;;;;7.45;3.63;;;9.40;99.90;;;;;;5038948;28;20021;-75
2022/11/02 03:06:23;;;;;;;8.57;3.45;;;9.40;99.90;;;;;;5040884;28;20079;-75
2022/11/02 03:08:57;;;;;;;6.82;3.20;;;9.40;99.90;;;;;;5023922;28;20036;-75
2022/11/02 03:11:23;;;;;;;6.05;3.28;;;9.50;99.90;;;;;;5033696;28;20108;-75
2022/11/02 03:14:07;;;;;;;6.90;3.17;;;9.40;99.90;;;;;;5032232;28;20060;-76
2022/11/02 03:16:35;;;;;;;7.82;3.58;;;9.40;99.90;;;;;;5033467;28;20029;-75
2022/11/02 03:19:15;;;;;;;11.57;3.33;;;9.40;99.90;;;;;;5046640;28;20036;-74
2022/11/02 03:21:43;;;;;;;11.27;3.45;;;9.40;99.90;;;;;;5024207;28;20052;-75
2022/11/02 03:24:38;;;;;;;8.07;3.42;;;9.40;99.90;;;;;;5020101;28;20057;-76
2022/11/02 03:27:06;;;;;;;7.63;3.53;;;9.40;99.90;;;;;;5019078;28;20069;-75
2022/11/02 03:29:46;;;;;;;10.52;3.42;;;9.40;99.90;;;;;;5046873;28;20495;-76
2022/11/02 03:32:19;;;;;;;7.53;3.35;;;9.70;99.90;;;;;;5020705;28;20061;-76
2022/11/02 03:34:55;;;;;;;8.10;3.33;;;9.30;99.90;;;;;;5033190;28;20047;-76
2022/11/02 03:37:35;;;;;;;7.97;3.20;;;9.30;99.90;;;;;;5032991;28;20380;-77
2022/11/02 03:40:12;;;;;;;8.77;3.78;;;9.30;99.90;;;;;;5022867;28;20094;-75
2022/11/02 03:42:40;;;;;;;7.13;3.65;;;9.30;99.90;;;;;;5040245;28;20099;-75
2022/11/02 03:45:19;;;;;;;9.63;4.00;;;9.30;99.90;;;;;;5039342;28;20388;-74
2022/11/02 03:47:48;;;;;;;9.30;3.60;;;9.30;99.90;;;;;;5043549;28;20068;-75
2022/11/02 03:50:18;;;;;;;9.80;3.35;;;9.30;99.90;;;;;;5032787;28;20033;-75
2022/11/02 03:52:45;;;;;;;11.43;4.13;;;9.30;99.90;;;;;;5022028;28;20487;-76
2022/11/02 03:55:17;;;;;;;11.80;4.05;;;9.20;99.90;;;;;;5032805;28;20435;-75
2022/11/02 03:57:47;;;;;;;8.75;3.80;;;9.30;99.90;;;;;;5032561;28;20113;-75
2022/11/02 04:00:16;;;;;;;9.38;3.60;;;9.20;99.90;;;;;;5032639;28;20025;-76
2022/11/02 04:02:46;;;;;;;9.70;3.85;;;9.20;99.90;;;;;;5032635;28;20375;-75
2022/11/02 04:05:11;;;;;;;10.13;3.67;;;9.20;99.90;;;;;;5032554;28;20029;-76
2022/11/02 04:10:26;;;;;;;8.55;3.70;;;9.20;99.90;;;;;;5041669;28;20033;-75
2022/11/02 04:15:35;;;;;;;11.23;3.50;;;9.20;99.90;;;;;;5044913;28;20407;-75
2022/11/02 04:20:49;;;;;;;7.95;3.65;;;9.30;99.90;;;;;;5037722;28;20122;-75
2022/11/02 04:25:59;;;;;;;12.07;3.97;;;9.30;99.90;;;;;;5032244;28;20090;-73
2022/11/02 04:28:25;;;;;;;8.82;3.45;;;9.30;99.90;;;;;;5043018;28;20482;-74
2022/11/02 04:30:50;;;;;;;9.13;3.92;;;9.20;99.90;;;;;;5034325;28;20051;-74
2022/11/02 04:33:31;;;;;;;7.55;3.95;;;9.20;99.90;;;;;;5021922;28;20032;-74
2022/11/02 04:35:59;;;;;;;7.05;3.67;;;9.20;99.90;;;;;;5032128;28;20479;-75
2022/11/02 04:38:40;;;;;;;11.05;4.13;;;9.20;99.90;;;;;;5030414;28;20372;-75
2022/11/02 04:43:54;;;;;;;11.98;4.13;;;9.10;99.90;;;;;;5045141;28;20079;-75
2022/11/02 04:46:20;;;;;;;5.63;3.70;;;9.10;99.90;;;;;;5014174;28;20025;-76
2022/11/02 04:48:46;;;;;;;7.85;3.70;;;9.00;99.90;;;;;;5027406;28;20044;-75
2022/11/02 04:51:12;;;;;;;9.05;4.10;;;9.00;99.90;;;;;;5031873;28;20463;-74
2022/11/02 04:53:38;;;;;;;10.90;4.20;;;9.00;99.90;;;;;;5031686;28;20503;-75
2022/11/02 04:56:03;;;;;;;9.57;3.70;;;9.00;99.90;;;;;;5031858;28;20075;-74
2022/11/02 04:58:29;;;;;;;9.98;4.45;;;9.00;99.90;;;;;;5044708;28;20027;-74
2022/11/02 05:00:55;;;;;;;8.45;4.13;;;9.00;99.90;;;;;;5025321;28;20405;-74
2022/11/02 05:03:20;;;;;;;12.32;4.03;;;9.00;99.90;;;;;;5016970;28;20021;-74
2022/11/02 05:05:46;;;;;;;8.75;4.38;;;9.00;99.90;;;;;;5032179;28;20088;-74
2022/11/02 05:08:11;;;;;;;12.98;5.07;;;8.90;99.90;;;;;;5045023;28;20032;-75
2022/11/02 05:10:37;;;;;;;8.15;4.35;;;8.90;99.90;;;;;;5032003;28;20479;-77
2022/11/02 05:13:02;;;;;;;9.23;4.28;;;8.90;99.90;;;;;;5036182;28;20033;-76
2022/11/02 05:15:28;;;;;;;9.15;4.35;;;8.90;99.90;;;;;;5030502;28;20376;-76
2022/11/02 05:17:53;;;;;;;8.80;4.07;;;8.90;99.90;;;;;;5032969;28;20461;-75
2022/11/02 05:20:19;;;;;;;8.35;4.40;;;8.80;99.90;;;;;;5032416;28;20079;-76
2022/11/02 05:22:45;;;;;;;10.10;4.70;;;8.80;99.90;;;;;;5031752;28;20083;-76
2022/11/02 05:25:11;;;;;;;9.00;4.47;;;8.80;99.90;;;;;;5043135;28;20033;-75
2022/11/02 05:27:37;;;;;;;11.38;4.97;;;8.80;99.90;;;;;;5033646;28;20534;-75
2022/11/02 05:30:04;;;;;;;8.25;4.55;;;8.80;99.90;;;;;;5031627;28;20030;-75
2022/11/02 05:32:30;;;;;;;11.18;5.05;;;8.80;99.90;;;;;;5016576;28;20124;-75
2022/11/02 05:34:56;;;;;;;12.13;5.30;;;8.70;99.90;;;;;;5031293;28;20072;-74
2022/11/02 05:37:22;;;;;;;10.50;5.28;;;8.70;99.90;;;;;;5042023;28;20028;-75
2022/11/02 05:39:47;;;;;;;9.10;4.43;;;8.60;99.90;;;;;;5023099;28;20028;-74
2022/11/02 05:42:13;;;;;;;9.48;4.53;;;8.60;99.90;;;;;;5044649;28;20049;-74
2022/11/02 05:44:38;;;;;;;10.57;5.22;;;8.60;99.90;;;;;;5033413;28;20098;-75
2022/11/02 05:47:04;;;;;;;9.15;4.65;;;8.60;99.90;;;;;;5037645;28;20040;-73
2022/11/02 05:49:30;;;;;;;9.80;4.85;;;8.60;99.90;;;;;;5024383;28;20142;-74
2022/11/02 05:51:55;;;;;;;13.07;4.90;;;8.50;99.90;;;;;;5035128;28;20095;-73
2022/11/02 05:54:21;;;;;;;12.02;4.97;;;8.50;99.90;;;;;;5034957;28;20033;-75
2022/11/02 05:56:46;;;;;;;8.98;5.13;;;8.50;99.90;;;;;;5039016;28;20025;-73
2022/11/02 05:59:12;;;;;;;10.77;5.60;;;8.50;99.90;;;;;;5026231;28;20112;-74
2022/11/02 06:01:37;;;;;;;12.15;5.50;;;8.50;99.90;;;;;;5034854;28;20041;-75
2022/11/02 06:04:04;;;;;;;11.25;6.22;;;8.50;99.90;;;;;;5033518;28;20079;-75
2022/11/02 06:06:29;;;;;;;8.73;5.68;;;8.50;99.90;;;;;;5048493;28;20036;-76
2022/11/02 06:08:55;;;;;;;11.88;6.70;;;8.40;99.90;;;;;;5026488;28;20109;-75
2022/11/02 06:11:20;;;;;;;10.85;5.55;;;8.40;99.90;;;;;;5020866;28;20551;-75
2022/11/02 06:13:49;;;;;;;14.57;6.70;;;8.40;99.90;;;;;;5043907;28;20030;-75
2022/11/02 06:16:16;;;;;;;7.78;5.57;;;8.40;99.90;;;;;;5044766;28;20092;-75
2022/11/02 06:18:41;;;;;;;12.80;6.03;;;8.40;99.90;;;;;;5034436;28;20029;-75
2022/11/02 06:21:07;;;;;;;9.80;6.13;;;8.40;99.90;;;;;;5034812;28;20392;-75
2022/11/02 06:23:33;;;;;;;13.68;6.32;;;8.40;99.90;;;;;;5034577;28;20025;-75
2022/11/02 06:26:00;;;;;;;13.18;6.60;;;8.40;99.90;;;;;;5034627;28;20029;-75
2022/11/02 06:28:26;;;;;;;10.80;5.95;;;8.40;99.90;;;;;;5025733;28;20025;-75
2022/11/02 06:30:52;;;;;;;17.85;12.82;;;8.40;99.90;;;;;;5034475;28;20373;-76
2022/11/02 06:33:18;;;;;;;47.97;30.70;;;8.40;99.90;;;;;;5034419;28;20029;-75
2022/11/02 06:35:52;;;;;;;37.92;24.92;;;8.50;99.90;;;;;;5034377;28;20025;-76
2022/11/02 06:38:18;;;;;;;99.85;59.88;;;8.40;99.90;;;;;;5034535;28;20021;-76
2022/11/02 06:40:59;;;;;;;54.92;33.75;;;8.40;99.90;;;;;;5019397;28;20116;-75
2022/11/02 06:43:25;;;;;;;27.92;16.98;;;8.50;99.90;;;;;;5034168;28;20037;-75
2022/11/02 06:45:54;;;;;;;126.82;68.45;;;8.50;99.90;;;;;;5028881;28;20037;-75
2022/11/02 06:48:20;;;;;;;50.00;28.70;;;8.50;99.90;;;;;;5033895;28;20556;-75
2022/11/02 06:50:45;;;;;;;34.22;21.40;;;8.50;99.90;;;;;;5034082;28;20034;-76
2022/11/02 06:53:11;;;;;;;13.50;7.05;;;8.60;99.90;;;;;;5033508;28;20483;-76
2022/11/02 06:55:37;;;;;;;12.45;6.72;;;8.60;99.90;;;;;;5046610;28;20033;-75
2022/11/02 06:58:02;;;;;;;13.95;6.60;;;8.60;99.90;;;;;;5022293;28;20049;-75
2022/11/02 07:00:28;;;;;;;12.15;5.95;;;8.70;99.90;;;;;;5032682;28;20447;-75
2022/11/02 07:03:02;;;;;;;9.93;6.65;;;8.70;99.90;;;;;;5026632;28;20060;-76
2022/11/02 07:05:28;;;;;;;9.63;6.40;;;8.80;99.90;;;;;;5033898;28;20073;-75
2022/11/02 07:07:54;;;;;;;11.32;6.32;;;8.90;99.90;;;;;;5033690;28;20021;-74
2022/11/02 07:10:19;;;;;;;9.25;5.55;;;8.90;99.90;;;;;;5033768;28;20561;-76
2022/11/02 07:12:45;;;;;;;7.47;4.85;;;9.00;99.90;;;;;;5046864;28;20090;-76
2022/11/02 07:15:10;;;;;;;9.45;5.50;;;9.10;99.90;;;;;;5033751;28;20083;-75
2022/11/02 07:17:40;;;;;;;12.52;5.75;;;9.30;99.90;;;;;;5037072;28;20599;-75
2022/11/02 07:20:06;;;;;;;11.80;6.05;;;9.40;99.90;;;;;;5032025;28;20057;-76
2022/11/02 07:22:31;;;;;;;10.75;5.82;;;9.40;99.90;;;;;;5033425;28;20026;-76
2022/11/02 07:24:57;;;;;;;12.95;5.05;;;9.50;99.90;;;;;;5028822;28;20514;-78
2022/11/02 07:27:23;;;;;;;8.85;4.68;;;9.40;99.90;;;;;;5069285;22;20065;-74
2022/11/02 07:29:48;;;;;;;7.75;4.32;;;9.40;99.90;;;;;;5027996;28;20095;-74
2022/11/02 07:32:14;;;;;;;7.93;4.50;;;9.40;99.90;;;;;;5017951;28;20033;-74
2022/11/02 07:34:39;;;;;;;10.00;4.90;;;9.50;99.90;;;;;;5028445;28;20037;-74
2022/11/02 07:37:05;;;;;;;7.70;4.13;;;9.60;99.90;;;;;;5022348;28;20068;-73
2022/11/02 07:39:31;;;;;;;8.93;4.80;;;9.70;99.90;;;;;;5024435;28;20037;-74
2022/11/02 07:41:56;;;;;;;10.35;4.00;;;9.80;99.90;;;;;;5002547;28;20180;-73
2022/11/02 07:44:22;;;;;;;7.60;4.13;;;9.80;99.90;;;;;;5006830;28;20057;-75
2022/11/02 07:46:47;;;;;;;7.90;4.72;;;9.80;99.90;;;;;;5010605;28;20117;-76
2022/11/02 07:49:13;;;;;;;8.95;4.18;;;9.80;99.90;;;;;;5024374;28;20561;-74
2022/11/02 07:51:38;;;;;;;8.70;3.88;;;9.80;99.90;;;;;;5008804;28;20454;-74
2022/11/02 07:54:04;;;;;;;13.75;4.72;;;9.80;99.90;;;;;;5021648;28;20414;-74
2022/11/02 07:56:29;;;;;;;6.97;4.55;;;9.80;99.90;;;;;;5018093;28;20069;-74
2022/11/02 07:58:55;;;;;;;12.00;4.90;;;9.70;99.90;;;;;;5025028;28;20032;-73
2022/11/02 08:01:20;;;;;;;8.07;4.57;;;9.70;99.90;;;;;;5019527;28;20392;-74
2022/11/02 08:03:46;;;;;;;11.68;4.72;;;9.80;99.90;;;;;;5024310;28;20141;-75
2022/11/02 08:06:12;;;;;;;9.10;4.55;;;9.80;99.90;;;;;;5026206;28;20453;-75
2022/11/02 08:08:37;;;;;;;10.68;4.63;;;9.80;99.90;;;;;;5017185;28;20368;-74
2022/11/02 08:11:05;;;;;;;9.50;4.38;;;9.80;99.90;;;;;;5008702;28;20068;-74
2022/11/02 08:13:31;;;;;;;9.15;4.57;;;9.90;99.90;;;;;;5003284;28;20067;-74
2022/11/02 08:15:56;;;;;;;9.30;4.60;;;10.00;99.90;;;;;;5019031;28;20399;-74
2022/11/02 08:18:24;;;;;;;11.02;5.13;;;10.00;99.90;;;;;;5032374;28;20025;-75
2022/11/02 08:20:50;;;;;;;8.60;4.60;;;10.00;99.90;;;;;;4999684;28;20025;-75
2022/11/02 08:23:18;;;;;;;9.77;4.18;;;10.00;99.90;;;;;;5012638;28;20407;-75
2022/11/02 08:25:44;;;;;;;9.07;3.90;;;10.00;99.90;;;;;;5012304;28;20049;-74
2022/11/02 08:28:16;;;;;;;11.07;4.68;;;10.10;99.90;;;;;;5012216;28;20030;-74
2022/11/02 08:30:42;;;;;;;11.95;4.50;;;10.10;99.90;;;;;;5012407;28;20067;-74
2022/11/02 08:33:12;;;;;;;8.02;4.55;;;10.20;99.90;;;;;;4994909;28;20480;-74
2022/11/02 08:35:38;;;;;;;8.27;4.43;;;10.20;99.90;;;;;;5015777;28;20163;-74
2022/11/02 08:38:05;;;;;;;10.80;4.55;;;10.30;99.90;;;;;;5004635;28;20030;-74
2022/11/02 08:40:31;;;;;;;10.30;4.20;;;10.30;99.90;;;;;;5025917;28;20076;-75
2022/11/02 08:43:02;;;;;;;9.88;4.30;;;10.40;99.90;;;;;;5022303;28;20025;-75
2022/11/02 08:45:29;;;;;;;9.77;3.80;;;10.40;99.90;;;;;;5018641;28;20100;-74
2022/11/02 08:47:54;;;;;;;11.95;4.70;;;10.40;99.90;;;;;;5003401;28;20060;-74
2022/11/02 08:50:21;;;;;;;11.38;4.20;;;10.50;99.90;;;;;;5025679;28;20492;-74
2022/11/02 08:52:46;;;;;;;11.10;4.00;;;10.60;99.90;;;;;;5004884;28;20036;-74
2022/11/02 08:55:12;;;;;;;13.40;4.30;;;10.70;99.90;;;;;;4996785;28;20030;-74
2022/11/02 08:57:52;;;;;;;11.90;4.78;;;10.80;99.90;;;;;;4994144;28;20026;-75
2022/11/02 09:00:20;;;;;;;9.38;3.78;;;11.00;99.90;;;;;;5011697;28;20523;-75
2022/11/02 09:02:59;;;;;;;9.52;3.97;;;11.00;99.90;;;;;;5011992;28;20034;-74
2022/11/02 09:05:25;;;;;;;10.23;3.80;;;11.00;99.90;;;;;;5019638;28;20030;-74
2022/11/02 09:08:02;;;;;;;11.60;4.03;;;11.10;99.90;;;;;;5031267;28;20079;-74
2022/11/02 09:10:30;;;;;;;10.50;4.35;;;11.10;99.90;;;;;;5013698;28;20022;-75
2022/11/02 09:12:57;;;;;;;8.43;4.85;;;11.20;99.90;;;;;;5014839;28;20029;-74
2022/11/02 09:15:22;;;;;;;9.65;4.32;;;11.20;99.90;;;;;;5011728;28;20101;-75
2022/11/02 09:17:48;;;;;;;8.60;3.33;;;11.30;99.90;;;;;;5005964;28;20129;-75
2022/11/02 09:20:18;;;;;;;11.18;3.45;;;11.30;99.90;;;;;;5022666;28;20083;-73
2022/11/02 09:22:44;;;;;;;11.38;3.83;;;11.30;99.90;;;;;;5014383;28;20022;-74
2022/11/02 09:25:10;;;;;;;10.63;3.20;;;11.40;99.90;;;;;;5014141;28;20069;-74
2022/11/02 09:27:36;;;;;;;9.05;3.53;;;11.40;99.90;;;;;;4997348;28;20408;-74
2022/11/02 09:30:03;;;;;;;12.20;4.18;;;11.40;99.90;;;;;;5015696;28;20072;-75
2022/11/02 09:32:32;;;;;;;9.98;3.50;;;11.40;99.90;;;;;;5015700;28;20483;-75
2022/11/02 09:35:05;;;;;;;9.45;3.20;;;11.50;99.90;;;;;;4998251;28;20030;-74
2022/11/02 09:37:31;;;;;;;15.52;4.28;;;11.50;99.90;;;;;;5015313;28;20022;-74
2022/11/02 09:39:56;;;;;;;9.80;3.55;;;11.60;99.90;;;;;;4997820;28;20095;-75
2022/11/02 09:42:44;;;;;;;11.07;4.03;;;11.70;99.90;;;;;;5015459;28;20479;-74
2022/11/02 09:45:15;;;;;;;12.40;4.40;;;11.70;99.90;;;;;;5021349;28;20022;-74
2022/11/02 09:47:49;;;;;;;11.88;3.53;;;11.70;99.90;;;;;;5025601;28;20026;-73
2022/11/02 09:50:21;;;;;;;8.70;3.28;;;11.80;99.90;;;;;;5028109;28;20113;-75
2022/11/02 09:52:55;;;;;;;12.40;3.30;;;11.80;99.90;;;;;;4997880;28;20037;-75
2022/11/02 09:55:26;;;;;;;10.55;3.10;;;11.80;99.90;;;;;;5015403;28;20030;-75
2022/11/02 09:58:00;;;;;;;11.27;3.17;;;12.00;99.90;;;;;;4997381;28;20033;-74
2022/11/02 10:00:31;;;;;;;9.55;2.85;;;12.20;99.90;;;;;;5022233;28;20037;-75
2022/11/02 10:03:15;;;;;;;8.77;2.78;;;12.30;99.90;;;;;;5002925;28;20495;-74
2022/11/02 10:06:04;;;;;;;8.85;2.70;;;12.30;99.90;;;;;;4997526;28;20460;-74
2022/11/02 10:08:45;;;;;;;7.78;2.17;;;12.30;99.90;;;;;;5010569;28;20037;-74
2022/11/02 10:11:16;;;;;;;7.75;2.90;;;12.30;99.90;;;;;;5017327;28;20022;-74
2022/11/02 10:13:56;;;;;;;12.20;2.85;;;12.30;99.90;;;;;;5024443;28;20025;-74
2022/11/02 10:16:28;;;;;;;12.48;2.83;;;12.20;99.90;;;;;;5032083;28;20383;-75
2022/11/02 10:18:54;;;;;;;6.75;2.42;;;12.10;99.90;;;;;;5016837;28;20382;-74
2022/11/02 10:21:26;;;;;;;11.38;2.92;;;12.00;99.90;;;;;;5007620;28;20025;-74
2022/11/02 10:23:55;;;;;;;11.27;2.72;;;12.00;99.90;;;;;;5028354;28;20038;-74
2022/11/02 10:26:35;;;;;;;9.25;2.63;;;12.00;99.90;;;;;;5016580;28;20026;-74
2022/11/02 10:29:29;;;;;;;9.35;2.60;;;12.10;99.90;;;;;;5034559;28;20026;-73
2022/11/02 10:31:54;;;;;;;7.95;2.47;;;12.00;99.90;;;;;;5021452;28;20037;-74
2022/11/02 10:34:24;;;;;;;10.60;3.17;;;12.00;99.90;;;;;;5020676;28;20033;-74
2022/11/02 10:37:02;;;;;;;9.68;2.75;;;12.00;99.90;;;;;;5003413;28;20076;-74
2022/11/02 10:40:01;;;;;;;8.48;3.08;;;12.00;99.90;;;;;;5008685;28;20160;-74
2022/11/02 10:42:30;;;;;;;8.48;3.10;;;12.10;99.90;;;;;;5026565;28;20030;-74
2022/11/02 10:45:12;;;;;;;8.63;3.53;;;12.20;99.90;;;;;;5028257;28;20026;-74
2022/11/02 10:48:13;;;;;;;9.82;3.30;;;12.30;99.90;;;;;;5032559;28;20133;-74
2022/11/02 10:50:46;;;;;;;10.18;2.63;;;12.30;99.90;;;;;;5012655;28;20034;-74
2022/11/02 10:53:14;;;;;;;14.85;3.22;;;12.10;99.90;;;;;;5020948;28;20025;-75
2022/11/02 10:56:06;;;;;;;7.22;2.42;;;12.20;99.90;;;;;;5008344;28;20506;-75
2022/11/02 10:58:35;;;;;;;8.88;2.75;;;12.20;99.90;;;;;;5027373;28;20080;-74
2022/11/02 11:01:09;;;;;;;8.25;2.80;;;12.30;99.90;;;;;;5026169;28;20053;-74
2022/11/02 11:03:59;;;;;;;9.57;2.63;;;12.40;99.90;;;;;;5003089;28;20057;-74
2022/11/02 11:06:40;;;;;;;8.05;2.63;;;12.50;99.90;;;;;;5021065;28;20026;-74
2022/11/02 11:09:19;;;;;;;7.93;2.38;;;12.60;99.90;;;;;;5022010;28;20041;-74
2022/11/02 11:12:05;;;;;;;7.05;2.53;;;12.60;99.90;;;;;;5021824;28;20491;-75
2022/11/02 11:14:51;;;;;;;8.63;2.77;;;12.70;99.90;;;;;;5022270;28;20041;-75
2022/11/02 11:17:20;;;;;;;6.95;2.53;;;12.40;99.90;;;;;;5027545;28;20265;-76
2022/11/02 11:19:56;;;;;;;9.43;2.72;;;12.40;99.90;;;;;;5027724;28;20109;-74
2022/11/02 11:22:31;;;;;;;13.93;3.65;;;12.70;99.90;;;;;;5027480;28;20071;-74
2022/11/02 11:25:11;;;;;;;8.93;2.70;;;13.10;99.90;;;;;;5022506;28;20032;-74
2022/11/02 11:27:57;;;;;;;8.35;2.60;;;13.10;99.90;;;;;;5019758;28;20076;-75
2022/11/02 11:30:37;;;;;;;7.17;2.50;;;13.20;99.90;;;;;;5002520;28;20538;-74
2022/11/02 11:33:05;;;;;;;7.85;2.72;;;13.50;99.90;;;;;;5021976;28;20387;-74
2022/11/02 11:35:46;;;;;;;7.45;2.30;;;13.30;99.90;;;;;;5020422;28;20018;-74
2022/11/02 11:38:18;;;;;;;8.45;2.70;;;13.50;99.90;;;;;;5022542;28;20030;-74
2022/11/02 11:40:47;;;;;;;11.68;2.60;;;13.20;99.90;;;;;;5009105;28;20061;-74
2022/11/02 11:43:16;;;;;;;8.65;2.45;;;13.50;99.90;;;;;;5008739;28;20018;-74
2022/11/02 11:46:09;;;;;;;11.63;2.75;;;13.60;99.90;;;;;;5021141;28;20031;-75
2022/11/02 11:48:39;;;;;;;6.97;2.80;;;13.80;99.90;;;;;;5003894;28;20036;-74
2022/11/02 11:51:26;;;;;;;7.22;2.80;;;13.80;99.90;;;;;;5006175;28;20033;-74
2022/11/02 11:54:24;;;;;;;8.20;2.40;;;13.90;99.90;;;;;;5026764;28;20021;-74
2022/11/02 11:56:52;;;;;;;10.30;2.80;;;14.10;99.90;;;;;;5026519;28;20025;-75
2022/11/02 11:59:27;;;;;;;10.18;2.97;;;14.10;99.90;;;;;;5006739;28;20030;-75
2022/11/02 12:02:00;;;;;;;6.75;2.20;;;13.80;99.90;;;;;;5001838;28;20026;-75
2022/11/02 12:04:36;;;;;;;8.85;2.95;;;13.90;99.90;;;;;;5015272;28;20029;-75
2022/11/02 12:07:34;;;;;;;8.75;2.70;;;13.90;99.90;;;;;;5003185;28;20026;-76
2022/11/02 12:10:23;;;;;;;8.98;2.63;;;13.70;99.90;;;;;;5014007;28;20121;-75
2022/11/02 12:12:51;;;;;;;8.98;2.53;;;13.70;99.90;;;;;;4969142;28;20037;-75
2022/11/02 12:15:49;;;;;;;8.05;2.33;;;13.90;99.90;;;;;;5022786;28;20495;-75
2022/11/02 12:18:51;;;;;;;6.88;2.17;;;14.00;99.90;;;;;;5031611;28;20031;-75
2022/11/02 12:21:37;;;;;;;6.95;2.33;;;14.20;99.90;;;;;;5019377;28;20046;-75
2022/11/02 12:24:38;;;;;;;6.78;2.67;;;13.80;99.90;;;;;;5025995;28;20026;-75
2022/11/02 12:27:18;;;;;;;8.80;2.65;;;13.40;99.90;;;;;;4981683;28;20049;-75
2022/11/02 12:29:59;;;;;;;7.97;2.22;;;13.30;99.90;;;;;;5021241;28;20022;-74
2022/11/02 12:32:40;;;;;;;7.45;1.83;;;13.40;99.90;;;;;;5002041;28;20023;-75
2022/11/02 12:35:29;;;;;;;6.03;1.98;;;13.30;99.90;;;;;;5002936;28;20084;-74
2022/11/02 12:38:03;;;;;;;8.38;2.50;;;13.60;99.90;;;;;;5022017;28;20021;-74
2022/11/02 12:41:01;;;;;;;7.88;2.30;;;13.40;99.90;;;;;;5016073;28;20026;-74
2022/11/02 12:43:43;;;;;;;8.25;2.92;;;13.30;99.90;;;;;;5009747;28;20472;-74
2022/11/02 12:46:39;;;;;;;9.27;2.50;;;13.40;99.90;;;;;;5022807;28;20033;-74
2022/11/02 12:49:43;;;;;;;9.82;2.33;;;13.30;99.90;;;;;;5020214;28;20021;-74
2022/11/02 12:52:29;;;;;;;9.63;2.45;;;13.20;99.90;;;;;;4984572;28;20445;-74
2022/11/02 12:55:01;;;;;;;7.00;2.40;;;13.30;99.90;;;;;;5001347;28;20028;-74
2022/11/02 12:57:32;;;;;;;7.30;2.95;;;13.30;99.90;;;;;;5022837;28;20034;-74
2022/11/02 13:00:01;;;;;;;9.35;2.45;;;13.40;99.90;;;;;;5025528;28;20413;-73
2022/11/02 13:02:31;;;;;;;7.35;2.40;;;13.30;99.90;;;;;;5023601;28;20382;-74
2022/11/02 13:05:02;;;;;;;8.43;2.28;;;13.40;99.90;;;;;;5019068;28;20025;-74
2022/11/02 13:07:57;;;;;;;11.00;2.75;;;13.40;99.90;;;;;;5020663;28;20029;-74
2022/11/02 13:10:39;;;;;;;8.05;2.38;;;13.30;99.90;;;;;;5030805;28;20387;-74
2022/11/02 13:13:13;;;;;;;5.13;2.53;;;13.00;99.90;;;;;;5014375;28;20496;-74
2022/11/02 13:15:41;;;;;;;9.15;2.95;;;12.80;99.90;;;;;;5007256;28;20030;-74
2022/11/02 13:18:22;;;;;;;7.10;2.80;;;12.70;99.90;;;;;;5001338;28;20033;-74
2022/11/02 13:20:53;;;;;;;12.68;3.20;;;12.50;99.90;;;;;;5017925;28;20475;-74
2022/11/02 13:23:49;;;;;;;7.60;2.47;;;12.50;99.90;;;;;;5023204;28;20030;-74